Terminal Aerodrome Forecast
Issued by NWS Cleveland, OH

Home | Current Version | Previous Version | Graphics & Text | Print | Product List | Glossary On
Versions: 1 2 3 4 5 6 7 8 9 10 11 12 13 14 15 16 17 18 19 20 21 22 23 24 25 26 27
000
FTUS41 KCLE 160140 AAC
TAFCLE
TAF AMD
KCLE 160140Z 1602/1706 31009KT 1 1/2SM -RA BR OVC006
     FM160800 33010KT 5SM BR OVC007
     FM161500 33013KT P6SM OVC015
     FM162300 32010KT P6SM BKN020=

USA.gov is the U.S. government's official web portal to all federal, state and local government web resources and services.